ZSPD/PVG METAR and TAF weather

Enter ICAO airport designator
Station Type Date Time Source
ZSPD METAR 2019/02/17 16:30 UTC NOAA

ZSPD 171630Z 04003MPS CAVOK 05/01 Q1027 NOSIG


Station Type Date Time Source
ZSPD Decoded METAR 2019/02/17 16:30 UTC NOAA

Shanghai / Pudong, China (ZSPD) 31-07N 121-46E
Feb 17, 2019 - 11:30 AM EST / 2019.02.17 1630 UTC
Wind: from the NE (040 degrees) at 7 MPH (6 KT):0
Visibility: greater than 7 mile(s):0
Temperature: 41 F (5 C)
Dew Point: 33 F (1 C)
Relative Humidity: 75%
Pressure (altimeter): 30.33 in. Hg (1027 hPa)
ob: ZSPD 171630Z 04003MPS CAVOK 05/01 Q1027 NOSIG
cycle: 16

Station Type Date Time Source
ZSPD TAF 2019/02/17 18:06 UTC NOAA

TAF TAF ZSPD 171512Z 1718/1818 05004MPS 6000 BKN013 TX08/1806Z TN02/1721Z
BECMG 1722/1724 09004MPS


Example: see airport list